createdAt,value
2019-01-30T00:03:26.555Z,69.18
2019-01-30T00:07:30.781Z,69.11
2019-01-30T00:11:35.052Z,69.00
2019-01-30T00:15:39.333Z,68.98
2019-01-30T00:19:43.546Z,69.08
2019-01-30T00:23:47.822Z,69.19
2019-01-30T00:27:52.051Z,69.26
2019-01-30T00:31:56.324Z,69.29
2019-01-30T00:36:00.598Z,69.42
2019-01-30T00:40:06.351Z,69.37
2019-01-30T00:44:10.646Z,69.34
2019-01-30T00:48:15.019Z,69.31
2019-01-30T00:52:19.294Z,69.01
2019-01-30T00:56:23.833Z,68.88
2019-01-30T01:00:28.551Z,68.70
2019-01-30T01:04:32.847Z,68.91
2019-01-30T01:08:37.106Z,68.96
2019-01-30T01:12:41.363Z,68.95
2019-01-30T01:16:45.633Z,69.02
2019-01-30T01:20:50.266Z,69.05
2019-01-30T01:24:54.675Z,69.08
2019-01-30T01:28:58.878Z,69.03
2019-01-30T01:33:03.148Z,69.14
2019-01-30T01:37:07.458Z,69.36
2019-01-30T01:41:11.746Z,69.57
2019-01-30T01:45:17.990Z,69.67
2019-01-30T01:49:22.518Z,69.71
2019-01-30T01:53:26.731Z,69.81
2019-01-30T01:57:31.004Z,69.94
2019-01-30T02:01:35.294Z,69.95
2019-01-30T02:05:39.577Z,70.02
2019-01-30T02:09:43.806Z,70.11
2019-01-30T02:13:48.371Z,70.09
2019-01-30T02:17:52.721Z,70.23
2019-01-30T02:21:56.992Z,70.19
2019-01-30T02:26:01.335Z,70.18
2019-01-30T02:30:08.801Z,70.21
2019-01-30T02:34:13.082Z,70.38
2019-01-30T02:38:17.367Z,70.23
2019-01-30T02:42:21.643Z,70.28
2019-01-30T02:46:25.870Z,70.42
2019-01-30T02:50:30.212Z,70.42
2019-01-30T02:54:34.460Z,70.31
2019-01-30T02:58:38.750Z,70.33
2019-01-30T03:02:42.981Z,70.31
2019-01-30T03:06:47.257Z,70.31
2019-01-30T03:10:51.537Z,70.14
2019-01-30T03:14:55.816Z,70.19
2019-01-30T03:19:00.085Z,70.15
2019-01-30T03:23:04.465Z,70.24
2019-01-30T03:27:08.754Z,70.33
2019-01-30T03:31:18.034Z,70.26
2019-01-30T03:35:19.217Z,70.45
2019-01-30T03:39:23.485Z,70.46
2019-01-30T03:43:27.702Z,70.35
2019-01-30T03:47:31.934Z,70.28
2019-01-30T03:51:36.209Z,70.12
2019-01-30T03:55:40.480Z,70.07
2019-01-30T03:59:45.112Z,69.96
2019-01-30T04:03:49.366Z,69.79
2019-01-30T04:07:54.003Z,69.83
2019-01-30T04:11:58.318Z,69.89
2019-01-30T04:16:02.583Z,69.81
2019-01-30T04:20:08.423Z,69.80
2019-01-30T04:24:12.698Z,69.69
2019-01-30T04:28:16.907Z,69.72
2019-01-30T04:32:21.185Z,69.76
2019-01-30T04:36:25.476Z,69.94
2019-01-30T04:40:29.700Z,69.97
2019-01-30T04:44:34.015Z,69.98
2019-01-30T04:48:38.284Z,70.09
2019-01-30T04:52:42.571Z,70.25
2019-01-30T04:56:46.764Z,70.34
2019-01-30T05:00:51.079Z,70.46
2019-01-30T05:04:55.356Z,70.57
2019-01-30T05:09:00.477Z,70.63
2019-01-30T05:13:04.728Z,70.76
2019-01-30T05:17:09.736Z,70.81
2019-01-30T05:21:14.075Z,70.71
2019-01-30T05:25:20.143Z,70.71
2019-01-30T05:29:24.798Z,70.81
2019-01-30T05:33:29.009Z,70.93
2019-01-30T05:37:33.313Z,70.69
2019-01-30T05:41:37.732Z,70.57
2019-01-30T05:45:41.957Z,70.62
2019-01-30T05:49:46.209Z,70.76
2019-01-30T05:53:50.508Z,70.71
2019-01-30T05:57:54.762Z,70.63
2019-01-30T06:01:59.031Z,70.55
2019-01-30T06:06:03.321Z,70.53
2019-01-30T06:10:07.996Z,70.52
2019-01-30T06:14:12.249Z,70.49
2019-01-30T06:18:16.491Z,70.59
2019-01-30T06:22:20.762Z,70.52
2019-01-30T06:26:25.007Z,70.65
2019-01-30T06:30:29.314Z,71.82
2019-01-30T06:34:33.673Z,71.26
2019-01-30T06:38:38.042Z,70.81
2019-01-30T06:42:42.353Z,70.64
2019-01-30T06:46:46.659Z,70.62
2019-01-30T06:50:50.961Z,70.59
2019-01-30T06:54:55.259Z,70.61
2019-01-30T06:58:59.542Z,70.54
2019-01-30T07:03:04.069Z,70.56
2019-01-30T07:07:08.778Z,70.58
2019-01-30T07:11:13.063Z,70.67
2019-01-30T07:15:17.439Z,70.58
2019-01-30T07:19:21.711Z,70.49
2019-01-30T07:23:25.998Z,70.48
2019-01-30T07:27:30.221Z,70.52
2019-01-30T07:31:34.528Z,70.49
2019-01-30T07:35:38.815Z,70.60
2019-01-30T07:39:43.096Z,70.67
2019-01-30T07:43:47.434Z,70.69
2019-01-30T07:47:52.052Z,70.65
2019-01-30T07:51:56.408Z,70.70
2019-01-30T07:56:00.674Z,70.78
2019-01-30T08:00:07.057Z,70.80
2019-01-30T08:04:11.441Z,70.75
2019-01-30T08:08:15.733Z,70.81
2019-01-30T08:12:20.061Z,71.45
2019-01-30T08:16:25.100Z,71.00
2019-01-30T08:20:29.458Z,70.95
2019-01-30T08:24:34.239Z,70.99
2019-01-30T08:28:39.247Z,70.89
2019-01-30T08:32:44.248Z,70.91
2019-01-30T08:36:50.853Z,70.81
2019-01-30T08:40:55.328Z,70.69
2019-01-30T08:44:59.747Z,70.57
2019-01-30T08:49:04.321Z,70.51
2019-01-30T08:53:08.896Z,70.54
2019-01-30T08:57:13.817Z,70.42
2019-01-30T09:01:18.170Z,70.36
2019-01-30T09:05:22.777Z,70.37
2019-01-30T09:09:27.544Z,70.34
2019-01-30T09:13:32.283Z,70.14
2019-01-30T09:17:36.890Z,70.07
2019-01-30T09:21:41.673Z,70.06
2019-01-30T09:25:45.984Z,69.96
2019-01-30T09:29:50.605Z,69.31
2019-01-30T09:33:54.932Z,68.70
2019-01-30T09:37:59.172Z,68.36
2019-01-30T09:42:03.661Z,68.05
2019-01-30T09:46:07.959Z,67.60
2019-01-30T09:50:14.900Z,67.20
2019-01-30T09:54:19.171Z,67.13
2019-01-30T09:58:24.042Z,66.90
2019-01-30T10:02:28.413Z,67.16
2019-01-30T10:06:32.805Z,67.25
2019-01-30T10:10:38.414Z,67.38
2019-01-30T10:14:42.688Z,67.29
2019-01-30T10:18:46.943Z,67.31
2019-01-30T10:22:51.456Z,67.28
2019-01-30T10:26:55.755Z,67.49
2019-01-30T10:31:00.340Z,67.73
2019-01-30T10:35:23.818Z,67.92
2019-01-30T10:39:28.081Z,67.72
2019-01-30T10:43:32.456Z,67.90
2019-01-30T10:47:36.728Z,67.69
2019-01-30T10:51:41.065Z,67.68
2019-01-30T10:55:45.299Z,67.58
2019-01-30T10:59:49.666Z,67.49
2019-01-30T11:03:57.514Z,67.44
2019-01-30T11:07:59.885Z,67.34
2019-01-30T11:12:04.169Z,67.24
2019-01-30T11:16:08.463Z,66.96
2019-01-30T11:20:14.129Z,66.92
2019-01-30T11:24:18.390Z,66.98
2019-01-30T11:28:22.912Z,67.03
2019-01-30T11:32:27.202Z,66.91
2019-01-30T11:36:31.454Z,67.04
2019-01-30T11:40:35.824Z,66.97
2019-01-30T11:44:40.056Z,66.94
2019-01-30T11:48:44.340Z,66.71
2019-01-30T11:52:48.627Z,66.91
2019-01-30T11:56:52.914Z,66.89
2019-01-30T12:01:03.663Z,66.91
2019-01-30T12:05:10.293Z,66.91
2019-01-30T12:09:14.623Z,67.36
2019-01-30T12:13:18.880Z,67.31
2019-01-30T12:17:23.134Z,67.37
2019-01-30T12:21:27.436Z,67.41
2019-01-30T12:25:31.720Z,67.51
2019-01-30T12:29:36.965Z,67.47
2019-01-30T12:33:41.278Z,67.44
2019-01-30T12:37:45.539Z,67.55
2019-01-30T12:41:49.795Z,67.60
2019-01-30T12:45:54.086Z,67.61
2019-01-30T12:49:58.410Z,67.36
2019-01-30T12:54:02.939Z,67.62
2019-01-30T12:58:07.186Z,67.85
2019-01-30T13:02:11.668Z,67.77
2019-01-30T13:06:15.934Z,67.98
2019-01-30T13:10:20.586Z,67.89
2019-01-30T13:14:24.885Z,67.97
2019-01-30T13:18:29.149Z,68.01
2019-01-30T13:22:33.432Z,68.39
2019-01-30T13:26:37.777Z,68.59
2019-01-30T13:30:43.785Z,69.16
2019-01-30T13:34:48.924Z,68.62
2019-01-30T13:38:53.557Z,68.54
2019-01-30T13:42:57.796Z,68.42
2019-01-30T13:47:02.067Z,68.61
2019-01-30T13:51:06.922Z,68.74
2019-01-30T13:55:11.483Z,68.76
2019-01-30T13:59:15.742Z,68.92
2019-01-30T14:03:21.864Z,69.04
2019-01-30T14:07:27.889Z,69.42
2019-01-30T14:11:33.938Z,69.21
2019-01-30T14:15:39.835Z,69.47
2019-01-30T14:19:46.814Z,69.37
2019-01-30T14:23:52.711Z,69.61
2019-01-30T14:27:58.929Z,69.71
2019-01-30T14:32:04.720Z,69.79
2019-01-30T14:36:10.824Z,70.22
2019-01-30T14:40:18.508Z,70.09
2019-01-30T14:44:24.456Z,70.22
2019-01-30T14:48:30.327Z,70.06
2019-01-30T14:52:36.528Z,70.14
2019-01-30T14:56:42.960Z,70.48
2019-01-30T15:00:48.610Z,70.38
2019-01-30T15:04:54.313Z,70.46
2019-01-30T15:09:01.682Z,70.71
2019-01-30T15:13:09.634Z,70.83
2019-01-30T15:17:15.666Z,70.76
2019-01-30T15:21:21.773Z,70.71
2019-01-30T15:25:28.008Z,71.08
2019-01-30T15:29:33.860Z,71.04
2019-01-30T15:33:39.493Z,71.17
2019-01-30T15:37:45.476Z,71.36
2019-01-30T15:41:51.047Z,71.46
2019-01-30T15:45:55.278Z,71.50
2019-01-30T15:49:59.557Z,71.80
2019-01-30T15:54:03.926Z,71.77
2019-01-30T15:58:10.221Z,71.72
2019-01-30T16:02:14.506Z,71.62
2019-01-30T16:06:18.761Z,71.65
2019-01-30T16:10:23.016Z,71.75
2019-01-30T16:14:27.458Z,71.75
2019-01-30T16:18:31.735Z,71.48
2019-01-30T16:23:03.637Z,71.82
2019-01-30T16:27:07.874Z,71.87
2019-01-30T16:31:12.117Z,71.96
2019-01-30T16:35:18.528Z,72.16
2019-01-30T16:39:23.106Z,72.36
2019-01-30T16:43:27.330Z,72.59
2019-01-30T16:47:31.660Z,72.82
2019-01-30T16:51:37.128Z,72.71
2019-01-30T16:55:41.544Z,72.72
2019-01-30T16:59:45.776Z,72.72
2019-01-30T17:03:50.031Z,72.73
2019-01-30T17:07:54.295Z,72.77
2019-01-30T17:11:58.592Z,72.85
2019-01-30T17:16:02.858Z,73.10
2019-01-30T17:20:13.860Z,72.75
2019-01-30T17:24:19.087Z,72.78
2019-01-30T17:28:23.472Z,72.71
2019-01-30T17:32:27.924Z,72.67
2019-01-30T17:36:32.275Z,73.97
2019-01-30T17:40:36.961Z,73.37
2019-01-30T17:44:41.284Z,72.86
2019-01-30T17:48:45.598Z,72.73
2019-01-30T17:52:49.891Z,72.53
2019-01-30T17:56:54.248Z,72.38
2019-01-30T18:01:02.470Z,72.42
2019-01-30T18:05:06.946Z,72.58
2019-01-30T18:09:11.436Z,72.44
2019-01-30T18:13:15.713Z,72.21
2019-01-30T18:17:20.040Z,72.19
2019-01-30T18:21:24.290Z,72.29
2019-01-30T18:25:28.586Z,72.26
2019-01-30T18:29:32.894Z,72.10
2019-01-30T18:33:37.146Z,71.97
2019-01-30T18:37:41.447Z,72.02
2019-01-30T18:41:45.649Z,71.93
2019-01-30T18:45:49.982Z,71.74
2019-01-30T18:49:54.273Z,71.75
2019-01-30T18:53:58.805Z,71.71
2019-01-30T18:58:03.077Z,71.75
2019-01-30T19:02:07.453Z,71.84
2019-01-30T19:06:11.703Z,71.79
2019-01-30T19:10:16.874Z,71.76
2019-01-30T19:14:21.134Z,71.81
2019-01-30T19:18:25.662Z,71.93
2019-01-30T19:22:29.937Z,72.10
2019-01-30T19:26:34.190Z,72.13
2019-01-30T19:30:38.492Z,72.15
2019-01-30T19:34:42.762Z,72.32
2019-01-30T19:38:47.057Z,72.41
2019-01-30T19:42:51.348Z,72.41
2019-01-30T19:46:56.012Z,72.42
2019-01-30T19:51:02.586Z,72.60
2019-01-30T19:55:07.484Z,72.60
2019-01-30T19:59:17.340Z,72.45
2019-01-30T20:03:27.484Z,72.51
2019-01-30T20:07:33.348Z,72.55
2019-01-30T20:11:38.295Z,72.65
2019-01-30T20:15:45.825Z,72.66
2019-01-30T20:19:51.659Z,72.70
2019-01-30T20:23:56.293Z,72.56
2019-01-30T20:28:00.583Z,72.49
2019-01-30T20:32:04.921Z,72.45
2019-01-30T20:36:09.295Z,72.37
2019-01-30T20:40:16.047Z,72.34
2019-01-30T20:44:20.307Z,72.38
2019-01-30T20:48:24.630Z,72.38
2019-01-30T20:52:29.206Z,72.20
2019-01-30T20:56:38.332Z,72.07
2019-01-30T21:00:52.040Z,72.07
2019-01-30T21:04:57.101Z,72.01
2019-01-30T21:09:03.534Z,71.91
2019-01-30T21:13:08.292Z,71.83
2019-01-30T21:17:12.840Z,71.90
2019-01-30T21:21:17.085Z,71.81
2019-01-30T21:25:21.536Z,71.82
2019-01-30T21:29:25.918Z,71.87
2019-01-30T21:33:30.168Z,72.03
2019-01-30T21:37:34.908Z,72.29
2019-01-30T21:41:39.252Z,72.54
2019-01-30T21:45:43.651Z,72.71
2019-01-30T21:49:47.974Z,72.75
2019-01-30T21:53:52.298Z,72.84
2019-01-30T21:57:56.666Z,72.95
2019-01-30T22:02:08.046Z,73.01
2019-01-30T22:06:07.438Z,73.12
2019-01-30T22:10:14.415Z,73.18
2019-01-30T22:14:18.815Z,73.30
2019-01-30T22:18:23.113Z,73.20
2019-01-30T22:22:31.504Z,73.50
2019-01-30T22:27:12.961Z,73.59
2019-01-30T22:31:17.837Z,73.63
2019-01-30T22:35:24.985Z,73.55
2019-01-30T22:39:29.548Z,73.65
2019-01-30T22:43:51.302Z,73.71
2019-01-30T22:47:56.650Z,73.72
2019-01-30T22:52:02.508Z,73.69
2019-01-30T22:56:07.816Z,73.71
2019-01-30T23:00:58.431Z,73.63
2019-01-30T23:05:14.238Z,73.56
2019-01-30T23:10:11.751Z,73.50
2019-01-30T23:14:24.830Z,73.53
2019-01-30T23:18:59.608Z,73.54
2019-01-30T23:23:45.846Z,73.42
2019-01-30T23:28:41.588Z,73.43
2019-01-30T23:33:25.408Z,73.43
2019-01-30T23:38:12.375Z,73.37
2019-01-30T23:42:47.187Z,73.32
2019-01-30T23:47:34.602Z,73.36
2019-01-30T23:52:26.359Z,73.45
2019-01-30T23:56:56.433Z,73.47
